createdAt,value
2023-03-23T15:59:42.662Z,100346.63
2023-03-23T16:02:19.656Z,100328.91
2023-03-23T16:04:48.026Z,100338.72
2023-03-23T16:07:14.647Z,100343.41
2023-03-23T16:09:42.500Z,100348.06
2023-03-23T16:12:15.610Z,100337.44
2023-03-23T16:14:42.206Z,100343.19
2023-03-23T16:17:13.853Z,100346.97
2023-03-23T16:19:40.285Z,100348.50
2023-03-23T16:22:06.896Z,100333.38
2023-03-23T16:24:33.462Z,100339.84
2023-03-23T16:26:59.888Z,100343.53
2023-03-23T16:29:46.786Z,100333.38
2023-03-23T16:32:12.778Z,100326.75
2023-03-23T16:34:39.215Z,100347.41
2023-03-23T16:37:06.861Z,100345.19
2023-03-23T16:39:33.668Z,100355.50
2023-03-23T16:42:00.285Z,100371.97
2023-03-23T16:44:26.724Z,100365.31
2023-03-23T16:46:53.209Z,100373.88
2023-03-23T16:49:19.629Z,100361.97
2023-03-23T16:51:47.161Z,100354.50
2023-03-23T16:54:13.685Z,100346.19
2023-03-23T16:56:40.228Z,100343.63
2023-03-23T16:59:06.839Z,100342.66
2023-03-23T17:01:33.423Z,100343.63
2023-03-23T17:03:59.853Z,100341.84
2023-03-23T17:06:26.286Z,100347.09
2023-03-23T17:08:52.643Z,100353.19
2023-03-23T17:11:19.039Z,100351.59
2023-03-23T17:13:45.434Z,100351.06
2023-03-23T17:16:11.947Z,100349.47
2023-03-23T17:18:38.500Z,100355.66
2023-03-23T17:21:05.404Z,100361.84
2023-03-23T17:23:32.298Z,100344.94
2023-03-23T17:25:58.785Z,100348.44
2023-03-23T17:28:25.902Z,100338.28
2023-03-23T17:30:53.178Z,100347.13
2023-03-23T17:33:19.564Z,100344.91
2023-03-23T17:35:47.375Z,100347.66
2023-03-23T17:38:14.207Z,100339.41
2023-03-23T17:40:40.794Z,100334.44
2023-03-23T17:43:07.294Z,100338.00
2023-03-23T17:45:33.853Z,100325.34
2023-03-23T17:48:00.495Z,100322.84
2023-03-23T17:50:27.473Z,100323.66
2023-03-23T17:52:53.842Z,100319.53
2023-03-23T17:55:20.226Z,100307.72
2023-03-23T17:57:46.790Z,100321.63
2023-03-23T18:00:13.816Z,100330.44
2023-03-23T18:02:40.300Z,100334.06
2023-03-23T18:05:09.266Z,100320.47
2023-03-23T18:07:36.778Z,100313.72
2023-03-23T18:10:04.319Z,100309.66
2023-03-23T18:12:31.338Z,100311.41
2023-03-23T18:14:58.446Z,100298.59
2023-03-23T18:17:25.771Z,100304.66
2023-03-23T18:19:52.273Z,100299.69
2023-03-23T18:22:18.894Z,100306.59
2023-03-23T18:24:45.750Z,100316.16
2023-03-23T18:27:12.367Z,100307.59
2023-03-23T18:29:38.785Z,100300.69
2023-03-23T18:32:07.175Z,100308.28
2023-03-23T18:34:34.642Z,100299.59
2023-03-23T18:37:01.116Z,100291.84
2023-03-23T18:39:28.093Z,100296.19
2023-03-23T18:41:54.502Z,100292.94
2023-03-23T18:44:20.899Z,100290.34
2023-03-23T18:46:47.366Z,100293.97
2023-03-23T18:49:13.769Z,100287.31
2023-03-23T18:51:40.248Z,100286.06
2023-03-23T18:54:06.675Z,100288.13
2023-03-23T18:56:33.118Z,100279.06
2023-03-23T18:58:59.479Z,100277.81
2023-03-23T19:01:26.447Z,100273.88
2023-03-23T19:03:53.401Z,100270.69
2023-03-23T19:06:22.612Z,100270.94
2023-03-23T19:08:50.172Z,100262.53
2023-03-23T19:11:17.232Z,100261.88
2023-03-23T19:13:53.774Z,100265.44
2023-03-23T19:16:27.882Z,100263.09
2023-03-23T19:18:54.334Z,100255.47
2023-03-23T19:21:25.322Z,100252.13
2023-03-23T19:23:54.218Z,100250.72
2023-03-23T19:26:24.277Z,100245.66
2023-03-23T19:31:23.621Z,100233.16
2023-03-23T19:33:52.265Z,100243.56
2023-03-23T19:36:20.312Z,100232.44
2023-03-23T19:38:46.834Z,100227.34
2023-03-23T19:41:13.552Z,100230.19
2023-03-23T19:43:41.655Z,100222.53
2023-03-23T19:46:08.259Z,100224.34
2023-03-23T19:48:35.419Z,100215.16
2023-03-23T19:51:02.433Z,100220.38
2023-03-23T19:53:28.951Z,100216.31
2023-03-23T19:55:55.577Z,100206.00
2023-03-23T19:58:22.071Z,100212.84
2023-03-23T20:00:48.852Z,100202.63
2023-03-23T20:03:16.676Z,100208.75
2023-03-23T20:05:43.460Z,100205.44
2023-03-23T20:08:10.394Z,100206.34
2023-03-23T20:10:37.907Z,100206.34
2023-03-23T20:13:07.158Z,100197.97
2023-03-23T20:15:33.837Z,100206.59
2023-03-23T20:18:00.928Z,100204.91
2023-03-23T20:20:28.116Z,100202.41
2023-03-23T20:22:57.305Z,100190.53
2023-03-23T20:25:24.909Z,100194.13
2023-03-23T20:27:51.646Z,100203.63
2023-03-23T20:30:18.822Z,100199.50
2023-03-23T20:32:46.354Z,100194.41
2023-03-23T20:35:14.704Z,100189.25
2023-03-23T20:37:41.546Z,100184.19
2023-03-23T20:40:14.947Z,100180.97
2023-03-23T20:42:43.817Z,100173.41
2023-03-23T20:45:12.509Z,100173.41
2023-03-23T20:47:39.811Z,100174.31
2023-03-23T20:50:07.396Z,100163.28
2023-03-23T20:52:34.135Z,100158.13
2023-03-23T20:55:00.912Z,100159.09
2023-03-23T20:57:28.776Z,100149.72
2023-03-23T20:59:55.797Z,100150.66
2023-03-23T21:02:25.918Z,100152.38
2023-03-23T21:04:52.841Z,100152.44
2023-03-23T21:07:23.009Z,100150.69
2023-03-23T21:09:49.699Z,100141.41
2023-03-23T21:12:16.254Z,100133.69
2023-03-23T21:14:44.826Z,100134.59
2023-03-23T21:17:11.489Z,100133.69
2023-03-23T21:19:38.209Z,100125.22
2023-03-23T21:22:05.258Z,100122.63
2023-03-23T21:24:32.079Z,100120.22
2023-03-23T21:27:01.101Z,100109.94
2023-03-23T21:29:28.372Z,100107.44
2023-03-23T21:32:07.737Z,100098.13
2023-03-23T21:34:36.042Z,100090.50
2023-03-23T21:37:02.562Z,100084.63
2023-03-23T21:39:29.118Z,100084.63
2023-03-23T21:41:55.609Z,100080.38
2023-03-23T21:44:22.163Z,100075.22
2023-03-23T21:46:48.738Z,100078.72
2023-03-23T21:49:15.153Z,100059.97
2023-03-23T21:51:41.961Z,100066.00
2023-03-23T21:54:09.961Z,100072.91
2023-03-23T21:56:37.514Z,100062.53
2023-03-23T21:59:04.849Z,100064.28
2023-03-23T22:01:31.486Z,100055.72
2023-03-23T22:03:58.069Z,100055.78
2023-03-23T22:06:26.809Z,100052.31
2023-03-23T22:08:53.597Z,100052.31
2023-03-23T22:11:23.468Z,100055.72
2023-03-23T22:13:50.789Z,100051.41
2023-03-23T22:16:18.249Z,100043.78
2023-03-23T22:18:46.050Z,100038.72
2023-03-23T22:21:14.420Z,100043.88
2023-03-23T22:23:41.759Z,100031.91
2023-03-23T22:26:10.222Z,100032.97
2023-03-23T22:28:37.209Z,100035.53
2023-03-23T22:31:13.570Z,100021.09
2023-03-23T22:33:40.022Z,100020.38
2023-03-23T22:36:07.184Z,100008.47
2023-03-23T22:38:35.431Z,100014.53
2023-03-23T22:41:04.534Z,100012.03
2023-03-23T22:43:30.972Z,99996.69
2023-03-23T22:45:57.377Z,99996.78
2023-03-23T22:48:25.946Z,99994.38
2023-03-23T22:50:52.812Z,99985.91
2023-03-23T22:53:20.853Z,99980.00
2023-03-23T22:55:50.150Z,99977.53
2023-03-23T22:58:17.496Z,99980.16
2023-03-23T23:00:48.379Z,99965.72
2023-03-23T23:03:16.355Z,99958.94
2023-03-23T23:05:45.042Z,99960.66
2023-03-23T23:08:15.225Z,99957.28
2023-03-23T23:10:45.333Z,99958.94
2023-03-23T23:13:13.500Z,99962.41
2023-03-23T23:15:48.447Z,99953.88
2023-03-23T23:18:15.984Z,99947.06
2023-03-23T23:20:43.348Z,99946.34
2023-03-23T23:23:10.610Z,99938.63
2023-03-23T23:25:37.252Z,99939.44
2023-03-23T23:28:05.909Z,99933.50
2023-03-23T23:30:33.221Z,99930.84
2023-03-23T23:33:00.367Z,99920.63
2023-03-23T23:35:27.477Z,99920.63
2023-03-23T23:37:53.936Z,99911.16
2023-03-23T23:40:20.949Z,99908.59
2023-03-23T23:42:49.655Z,99904.19
2023-03-23T23:45:16.699Z,99913.66
2023-03-23T23:47:43.224Z,99900.81
2023-03-23T23:50:11.742Z,99899.91
2023-03-23T23:52:39.575Z,99893.09
2023-03-23T23:55:07.691Z,99882.81
2023-03-23T23:57:34.813Z,99892.28
